createdAt,value
2022-08-10T00:02:13.013Z,1.37
2022-08-10T00:04:39.995Z,1.30
2022-08-10T00:07:06.917Z,1.40
2022-08-10T00:09:33.830Z,1.52
2022-08-10T00:12:19.679Z,1.38
2022-08-10T00:14:47.043Z,1.60
2022-08-10T00:17:13.823Z,1.52
2022-08-10T00:20:03.212Z,1.42
2022-08-10T00:22:27.643Z,1.70
2022-08-10T00:24:57.455Z,1.50
2022-08-10T00:28:01.472Z,1.30
2022-08-10T00:30:13.120Z,1.10
2022-08-10T00:32:39.963Z,1.60
2022-08-10T00:35:07.095Z,1.30
2022-08-10T00:37:33.952Z,1.25
2022-08-10T00:40:00.934Z,1.30
2022-08-10T00:42:27.829Z,1.23
2022-08-10T00:44:54.586Z,1.50
2022-08-10T00:47:36.070Z,1.42
2022-08-10T00:50:06.919Z,1.23
2022-08-10T00:52:36.245Z,1.30
2022-08-10T00:55:05.240Z,1.15
2022-08-10T00:57:32.768Z,1.35
2022-08-10T01:00:00.465Z,1.45
2022-08-10T01:02:29.515Z,1.23
2022-08-10T01:04:59.719Z,1.20
2022-08-10T01:07:58.874Z,1.25
2022-08-10T01:10:37.878Z,1.40
2022-08-10T01:13:18.992Z,1.30
2022-08-10T01:15:54.537Z,1.40
2022-08-10T01:18:38.132Z,1.10
2022-08-10T01:21:08.005Z,1.42
2022-08-10T01:24:09.250Z,1.50
2022-08-10T01:26:56.725Z,1.30
2022-08-10T01:29:47.608Z,1.52
2022-08-10T01:32:17.601Z,1.47
2022-08-10T01:34:59.739Z,1.27
2022-08-10T01:37:32.153Z,1.40
2022-08-10T01:40:02.377Z,1.40
2022-08-10T01:42:32.750Z,1.42
2022-08-10T01:45:05.358Z,1.40
2022-08-10T01:47:59.790Z,1.30
2022-08-10T01:50:59.090Z,1.50
2022-08-10T01:53:41.051Z,1.38
2022-08-10T01:56:12.302Z,1.40
2022-08-10T01:58:41.015Z,1.30
2022-08-10T02:01:10.936Z,1.30
2022-08-10T02:04:04.523Z,1.45
2022-08-10T02:06:37.120Z,1.35
2022-08-10T02:09:07.260Z,1.40
2022-08-10T02:12:05.371Z,1.40
2022-08-10T02:14:33.322Z,1.40
2022-08-10T02:17:06.311Z,1.70
2022-08-10T02:19:36.396Z,1.50
2022-08-10T02:22:34.893Z,1.70
2022-08-10T02:24:52.608Z,1.37
2022-08-10T02:27:23.381Z,1.45
2022-08-10T02:29:52.649Z,1.50
2022-08-10T02:32:32.964Z,1.45
2022-08-10T02:35:06.447Z,1.55
2022-08-10T02:37:36.308Z,1.60
2022-08-10T02:40:03.446Z,1.60
2022-08-10T02:45:16.002Z,1.48
2022-08-10T02:45:36.558Z,1.65
2022-08-10T02:48:13.401Z,1.70
2022-08-10T02:50:43.131Z,1.60
2022-08-10T02:53:55.926Z,1.60
2022-08-10T02:56:08.273Z,1.83
2022-08-10T02:58:45.360Z,1.70
2022-08-10T03:01:15.684Z,1.60
2022-08-10T03:03:49.730Z,1.80
2022-08-10T03:06:22.218Z,1.95
2022-08-10T03:08:51.964Z,1.98
2022-08-10T03:12:37.602Z,1.67
2022-08-10T03:14:13.303Z,1.80
2022-08-10T03:16:41.537Z,2.03
2022-08-10T03:20:33.864Z,1.80
2022-08-10T03:21:59.079Z,2.03
2022-08-10T03:24:33.166Z,1.90
2022-08-10T03:27:01.645Z,1.83
2022-08-10T03:29:30.836Z,1.80
2022-08-10T03:32:19.053Z,1.85
2022-08-10T03:34:46.620Z,1.83
2022-08-10T03:37:13.399Z,2.00
2022-08-10T03:39:40.335Z,2.33
2022-08-10T03:42:12.900Z,2.03
2022-08-10T03:44:43.050Z,1.92
2022-08-10T03:47:16.194Z,2.30
2022-08-10T03:49:46.755Z,2.25
2022-08-10T03:52:14.822Z,2.30
2022-08-10T03:54:42.785Z,2.10
2022-08-10T03:57:10.145Z,2.30
2022-08-10T03:59:37.768Z,2.47
2022-08-10T04:02:52.198Z,2.40
2022-08-10T04:04:55.088Z,2.28
2022-08-10T04:07:21.987Z,2.50
2022-08-10T04:09:56.159Z,2.50
2022-08-10T04:12:24.340Z,2.53
2022-08-10T04:14:53.130Z,2.33
2022-08-10T04:17:59.475Z,2.50
2022-08-10T04:20:34.424Z,2.60
2022-08-10T04:23:06.570Z,2.58
2022-08-10T04:25:34.440Z,2.90
2022-08-10T04:28:03.195Z,2.95
2022-08-10T04:30:31.857Z,3.13
2022-08-10T04:32:59.781Z,2.90
2022-08-10T04:35:29.020Z,2.65
2022-08-10T04:37:57.137Z,3.00
2022-08-10T04:40:25.119Z,2.97
2022-08-10T04:43:10.514Z,3.28
2022-08-10T04:45:49.613Z,2.73
2022-08-10T04:48:42.944Z,3.40
2022-08-10T04:51:07.844Z,3.33
2022-08-10T04:54:04.135Z,3.90
2022-08-10T04:56:31.381Z,3.45
2022-08-10T04:58:59.708Z,3.13
2022-08-10T05:01:26.574Z,3.70
2022-08-10T05:04:37.405Z,3.53
2022-08-10T05:06:40.292Z,3.33
2022-08-10T05:09:07.055Z,3.60
2022-08-10T05:11:34.086Z,3.77
2022-08-10T05:14:01.144Z,3.70
2022-08-10T05:16:31.595Z,4.30
2022-08-10T05:18:59.198Z,3.83
2022-08-10T05:21:57.017Z,3.85
2022-08-10T05:24:12.900Z,3.77
2022-08-10T05:26:55.340Z,4.10
2022-08-10T05:29:26.714Z,4.35
2022-08-10T05:31:54.099Z,3.70
2022-08-10T05:34:26.504Z,4.30
2022-08-10T05:36:55.417Z,4.00
2022-08-10T05:39:31.898Z,4.43
2022-08-10T05:42:01.798Z,4.82
2022-08-10T05:44:30.044Z,4.32
2022-08-10T05:46:56.977Z,4.75
2022-08-10T05:49:24.280Z,4.33
2022-08-10T05:51:51.815Z,4.32
2022-08-10T05:54:19.193Z,4.35
2022-08-10T05:56:54.061Z,4.70
2022-08-10T06:00:35.180Z,4.68
2022-08-10T06:02:31.057Z,4.80
2022-08-10T06:05:23.424Z,4.65
2022-08-10T06:08:04.642Z,5.18
2022-08-10T06:10:35.514Z,4.40
2022-08-10T06:13:30.718Z,4.90
2022-08-10T06:16:05.890Z,4.70
2022-08-10T06:18:33.290Z,4.38
2022-08-10T06:21:03.314Z,5.03
2022-08-10T06:23:31.612Z,4.50
2022-08-10T06:26:09.016Z,4.65
2022-08-10T06:29:01.963Z,4.70
2022-08-10T06:31:35.936Z,4.75
2022-08-10T06:34:25.191Z,4.75
2022-08-10T06:36:54.129Z,4.88
2022-08-10T06:39:33.443Z,4.72
2022-08-10T06:42:24.896Z,4.37
2022-08-10T06:44:58.424Z,4.10
2022-08-10T06:47:43.523Z,4.40
2022-08-10T06:50:44.835Z,4.18
2022-08-10T06:53:17.846Z,4.55
2022-08-10T06:55:57.490Z,4.13
2022-08-10T06:58:34.111Z,4.47
2022-08-10T07:01:04.788Z,4.28
2022-08-10T07:03:36.509Z,3.97
2022-08-10T07:06:05.123Z,3.70
2022-08-10T07:08:33.746Z,3.70
2022-08-10T07:11:02.496Z,3.92
2022-08-10T07:14:15.427Z,3.90
2022-08-10T07:16:19.821Z,3.40
2022-08-10T07:18:48.736Z,3.67
2022-08-10T07:21:17.986Z,3.50
2022-08-10T07:23:58.508Z,3.20
2022-08-10T07:26:28.922Z,3.55
2022-08-10T07:28:56.930Z,3.10
2022-08-10T07:31:34.006Z,3.20
2022-08-10T07:34:28.871Z,2.83
2022-08-10T07:37:00.423Z,2.70
2022-08-10T07:40:03.516Z,2.80
2022-08-10T07:42:26.998Z,3.08
2022-08-10T07:44:53.890Z,3.15
2022-08-10T07:47:53.558Z,2.57
2022-08-10T07:50:20.086Z,2.55
2022-08-10T07:52:48.813Z,2.65
2022-08-10T07:55:18.354Z,2.70
2022-08-10T07:57:49.410Z,2.78
2022-08-10T08:00:17.250Z,2.37
2022-08-10T08:02:53.874Z,2.13
2022-08-10T08:05:55.148Z,2.08
2022-08-10T08:08:14.903Z,2.20
2022-08-10T08:10:42.860Z,2.10
2022-08-10T08:13:10.457Z,2.07
2022-08-10T08:16:15.637Z,2.10
2022-08-10T08:18:28.941Z,2.47
2022-08-10T08:20:56.132Z,2.10
2022-08-10T08:24:09.204Z,2.20
2022-08-10T08:26:15.593Z,1.90
2022-08-10T08:28:45.679Z,2.10
2022-08-10T08:31:18.015Z,2.10
2022-08-10T08:33:47.000Z,2.00
2022-08-10T08:36:18.527Z,1.92
2022-08-10T08:38:47.518Z,2.23
2022-08-10T08:41:36.303Z,1.90
2022-08-10T08:44:34.707Z,1.70
2022-08-10T08:48:03.399Z,1.75
2022-08-10T08:50:39.922Z,1.85
2022-08-10T08:54:01.039Z,1.80
2022-08-10T08:57:07.861Z,1.80
2022-08-10T09:00:05.955Z,1.70
2022-08-10T09:03:13.847Z,1.70
2022-08-10T09:06:13.391Z,1.85
2022-08-10T09:08:58.888Z,1.67
2022-08-10T09:11:50.234Z,1.98
2022-08-10T09:14:30.021Z,2.00
2022-08-10T09:17:12.095Z,1.55
2022-08-10T09:19:49.547Z,1.70
2022-08-10T09:22:40.651Z,1.57
2022-08-10T09:25:28.286Z,1.40
2022-08-10T09:28:07.791Z,1.98
2022-08-10T09:31:11.053Z,1.98
2022-08-10T09:36:19.798Z,2.10
2022-08-10T09:36:48.366Z,1.57
2022-08-10T09:40:50.060Z,1.98
2022-08-10T09:43:21.593Z,1.70
2022-08-10T09:45:58.944Z,1.80
2022-08-10T09:48:51.296Z,1.60
2022-08-10T09:51:45.887Z,1.60
2022-08-10T09:54:27.366Z,1.63
2022-08-10T09:57:12.283Z,1.73
2022-08-10T10:00:01.509Z,2.13
2022-08-10T10:03:14.911Z,1.60
2022-08-10T10:05:57.181Z,1.73
2022-08-10T10:08:26.850Z,1.65
2022-08-10T10:11:04.168Z,1.60
2022-08-10T10:14:12.625Z,1.50
2022-08-10T10:17:20.918Z,1.70
2022-08-10T10:20:05.487Z,1.60
2022-08-10T10:22:50.911Z,1.50
2022-08-10T10:25:51.798Z,1.40
2022-08-10T10:28:57.532Z,1.52
2022-08-10T10:31:38.398Z,1.52
2022-08-10T10:34:25.169Z,1.60
2022-08-10T10:36:53.824Z,1.40
2022-08-10T10:39:26.166Z,1.88
2022-08-10T10:42:14.620Z,1.40
2022-08-10T10:45:16.177Z,1.50
2022-08-10T10:48:10.435Z,1.70
2022-08-10T10:50:54.320Z,1.70
2022-08-10T10:53:39.741Z,1.60
2022-08-10T10:56:35.444Z,1.80
2022-08-10T10:59:02.529Z,1.73
2022-08-10T11:02:26.703Z,1.60
2022-08-10T11:05:14.738Z,1.63
2022-08-10T11:07:53.503Z,1.80
2022-08-10T11:10:46.934Z,1.52
2022-08-10T11:14:27.100Z,1.60
2022-08-10T11:16:57.182Z,1.63
2022-08-10T11:20:03.003Z,1.60
2022-08-10T11:22:30.346Z,1.90
2022-08-10T11:25:22.256Z,1.50
2022-08-10T11:28:07.583Z,1.80
2022-08-10T11:30:34.737Z,1.43
2022-08-10T11:33:07.875Z,1.30
2022-08-10T11:35:49.610Z,1.58
2022-08-10T11:39:04.076Z,1.48
2022-08-10T11:42:07.908Z,1.70
2022-08-10T11:45:03.898Z,1.50
2022-08-10T11:47:58.333Z,1.40
2022-08-10T11:50:46.771Z,1.40
2022-08-10T11:53:53.685Z,1.50
2022-08-10T11:56:31.718Z,1.60
2022-08-10T11:59:17.802Z,1.30
2022-08-10T12:01:47.140Z,1.40
2022-08-10T12:04:16.129Z,1.27
2022-08-10T12:07:00.057Z,1.27
2022-08-10T12:10:09.588Z,1.40
2022-08-10T12:12:16.692Z,1.30
2022-08-10T12:15:08.794Z,1.52
2022-08-10T12:17:52.610Z,1.40
2022-08-10T12:20:26.634Z,1.20
2022-08-10T12:22:59.375Z,1.50
2022-08-10T12:25:57.583Z,1.30
2022-08-10T12:28:50.808Z,1.25
2022-08-10T12:31:42.792Z,1.63
2022-08-10T12:34:37.329Z,1.35
2022-08-10T12:37:12.877Z,1.45
2022-08-10T12:44:05.265Z,1.50
2022-08-10T12:46:06.318Z,1.33
2022-08-10T12:48:55.562Z,1.55
2022-08-10T12:51:28.913Z,1.42
2022-08-10T12:54:12.363Z,1.47
2022-08-10T12:56:48.458Z,1.30
2022-08-10T12:59:16.719Z,1.60
2022-08-10T13:02:06.514Z,1.40
2022-08-10T13:04:36.043Z,1.52
2022-08-10T13:07:05.305Z,1.20
2022-08-10T13:09:33.157Z,1.38
2022-08-10T13:12:44.944Z,1.50
2022-08-10T13:15:28.180Z,1.30
2022-08-10T13:17:55.705Z,1.50
2022-08-10T13:20:29.067Z,1.60
2022-08-10T13:22:59.821Z,1.40
2022-08-10T13:25:31.867Z,1.33
2022-08-10T13:28:36.180Z,1.40
2022-08-10T13:30:55.472Z,1.40
2022-08-10T13:34:41.575Z,1.20
2022-08-10T13:36:20.628Z,1.30
2022-08-10T13:38:48.825Z,1.20
2022-08-10T13:41:18.816Z,1.10
2022-08-10T13:43:52.432Z,1.52
2022-08-10T13:46:22.813Z,1.27
2022-08-10T13:48:54.885Z,1.25
2022-08-10T13:51:56.705Z,1.40
2022-08-10T13:54:19.253Z,1.40
2022-08-10T13:56:48.898Z,1.60
2022-08-10T13:59:17.726Z,1.50
2022-08-10T14:01:52.540Z,1.40
2022-08-10T14:04:20.172Z,1.30
2022-08-10T14:06:57.077Z,1.70
2022-08-10T14:09:28.646Z,1.30
2022-08-10T14:11:56.475Z,1.40
2022-08-10T14:14:25.649Z,1.30
2022-08-10T14:16:54.008Z,1.20
2022-08-10T14:19:29.867Z,1.40
2022-08-10T14:21:57.457Z,1.40
2022-08-10T14:24:29.340Z,1.23
2022-08-10T14:27:07.014Z,1.35
2022-08-10T14:29:42.785Z,1.30
2022-08-10T14:32:11.192Z,1.42
2022-08-10T14:36:15.553Z,1.30
2022-08-10T14:37:37.988Z,1.10
2022-08-10T14:40:17.567Z,1.45
2022-08-10T14:43:06.767Z,1.50
2022-08-10T14:45:37.000Z,1.30
2022-08-10T14:48:29.890Z,1.60
2022-08-10T14:50:59.621Z,1.40
2022-08-10T14:53:34.680Z,1.17
2022-08-10T14:56:07.231Z,1.17
2022-08-10T14:59:05.666Z,1.25
2022-08-10T15:02:37.536Z,1.27
2022-08-10T15:04:23.167Z,1.30
2022-08-10T15:06:56.828Z,1.20
2022-08-10T15:09:28.299Z,1.40
2022-08-10T15:12:13.444Z,1.45
2022-08-10T15:14:46.667Z,1.58
2022-08-10T15:17:37.148Z,1.50
2022-08-10T15:20:14.938Z,1.70
2022-08-10T15:22:55.994Z,1.58
2022-08-10T15:25:26.017Z,1.40
2022-08-10T15:28:04.875Z,1.48
2022-08-10T15:30:39.725Z,1.43
2022-08-10T15:34:03.328Z,1.42
2022-08-10T15:36:36.064Z,1.40
2022-08-10T15:39:37.901Z,1.23
2022-08-10T15:42:08.575Z,1.50
2022-08-10T15:44:45.287Z,1.40
2022-08-10T15:47:24.489Z,1.52
2022-08-10T15:50:19.705Z,1.30
2022-08-10T15:53:03.130Z,1.38
2022-08-10T15:55:44.070Z,1.35
2022-08-10T15:58:30.121Z,1.30
2022-08-10T16:02:12.813Z,1.52
2022-08-10T16:04:31.744Z,1.50
2022-08-10T16:07:03.265Z,1.30
2022-08-10T16:10:23.196Z,1.60
2022-08-10T16:12:34.326Z,1.40
2022-08-10T16:15:10.983Z,1.30
2022-08-10T16:17:54.293Z,1.33
2022-08-10T16:20:53.457Z,1.45
2022-08-10T16:23:34.975Z,1.50
2022-08-10T16:26:14.488Z,1.40
2022-08-10T16:28:54.769Z,2.03
2022-08-10T16:31:24.917Z,1.80
2022-08-10T16:33:55.243Z,1.50
2022-08-10T16:36:29.110Z,1.58
2022-08-10T16:38:57.518Z,1.40
2022-08-10T16:42:03.764Z,1.33
2022-08-10T16:44:18.579Z,1.40
2022-08-10T16:46:46.633Z,1.40
2022-08-10T16:49:15.787Z,1.77
2022-08-10T16:51:47.681Z,1.40
2022-08-10T16:54:22.378Z,1.50
2022-08-10T16:56:52.844Z,1.50
2022-08-10T16:59:24.812Z,1.70
2022-08-10T17:01:54.061Z,1.40
2022-08-10T17:04:23.680Z,1.37
2022-08-10T17:06:57.619Z,1.45
2022-08-10T17:09:30.492Z,1.60
2022-08-10T17:11:59.394Z,1.67
2022-08-10T17:14:28.805Z,1.48
2022-08-10T17:17:02.819Z,1.20
2022-08-10T17:19:36.993Z,1.20
2022-08-10T17:22:11.157Z,1.30
2022-08-10T17:24:47.860Z,1.20
2022-08-10T17:28:13.906Z,1.40
2022-08-10T17:30:11.043Z,1.57
2022-08-10T17:33:10.864Z,1.58
2022-08-10T17:35:41.167Z,1.63
2022-08-10T17:38:24.222Z,1.42
2022-08-10T17:41:12.790Z,1.67
2022-08-10T17:43:57.780Z,1.50
2022-08-10T17:46:34.392Z,1.45
2022-08-10T17:49:06.859Z,1.55
2022-08-10T17:51:35.670Z,1.90
2022-08-10T17:54:08.895Z,1.30
2022-08-10T17:56:37.745Z,1.40
2022-08-10T17:59:17.371Z,1.48
2022-08-10T18:02:01.259Z,1.60
2022-08-10T18:04:35.534Z,1.50
2022-08-10T18:07:10.539Z,1.55
2022-08-10T18:09:42.286Z,1.40
2022-08-10T18:12:17.929Z,1.30
2022-08-10T18:14:49.731Z,1.45
2022-08-10T18:17:23.549Z,1.50
2022-08-10T18:20:01.875Z,1.52
2022-08-10T18:22:30.240Z,1.47
2022-08-10T18:25:00.070Z,1.73
2022-08-10T18:27:46.570Z,1.55
2022-08-10T18:30:19.021Z,1.40
2022-08-10T18:32:50.157Z,1.50
2022-08-10T18:35:18.819Z,1.40
2022-08-10T18:37:51.918Z,1.40
2022-08-10T18:40:19.281Z,1.65
2022-08-10T18:42:50.283Z,1.48
2022-08-10T18:45:21.371Z,1.45
2022-08-10T18:48:13.676Z,1.40
2022-08-10T18:50:51.032Z,1.80
2022-08-10T18:53:50.548Z,1.55
2022-08-10T18:56:44.733Z,1.40
2022-08-10T18:59:39.424Z,1.40
2022-08-10T19:02:32.441Z,1.70
2022-08-10T19:05:32.492Z,1.50
2022-08-10T19:08:30.508Z,1.73
2022-08-10T19:11:11.386Z,1.67
2022-08-10T19:13:50.817Z,1.50
2022-08-10T19:16:40.891Z,1.60
2022-08-10T19:19:45.245Z,1.58
2022-08-10T19:22:22.796Z,1.67
2022-08-10T19:26:43.042Z,1.50
2022-08-10T19:28:35.761Z,1.50
2022-08-10T19:31:21.279Z,2.23
2022-08-10T19:33:49.403Z,1.70
2022-08-10T19:36:44.703Z,1.70
2022-08-10T19:39:26.951Z,1.70
2022-08-10T19:42:11.211Z,1.88
2022-08-10T19:44:53.877Z,1.63
2022-08-10T19:47:40.796Z,1.30
2022-08-10T19:50:19.556Z,1.80
2022-08-10T19:53:04.238Z,1.60
2022-08-10T19:56:04.950Z,1.40
2022-08-10T19:58:56.365Z,1.63
2022-08-10T20:01:25.681Z,1.80
2022-08-10T20:04:19.980Z,1.55
2022-08-10T20:06:57.264Z,1.67
2022-08-10T20:09:38.324Z,1.50
2022-08-10T20:12:08.478Z,1.43
2022-08-10T20:15:11.590Z,1.50
2022-08-10T20:17:55.226Z,1.65
2022-08-10T20:21:03.407Z,2.00
2022-08-10T20:23:36.610Z,1.98
2022-08-10T20:26:21.294Z,1.70
2022-08-10T20:29:16.322Z,1.70
2022-08-10T20:32:15.295Z,2.05
2022-08-10T20:34:48.934Z,2.10
2022-08-10T20:37:41.215Z,2.30
2022-08-10T20:40:32.491Z,1.80
2022-08-10T20:43:21.139Z,2.22
2022-08-10T20:46:19.801Z,2.45
2022-08-10T20:48:55.136Z,1.95
2022-08-10T20:51:59.225Z,2.05
2022-08-10T20:54:17.205Z,1.80
2022-08-10T20:56:53.116Z,2.00
2022-08-10T20:59:33.282Z,2.17
2022-08-10T21:02:13.541Z,1.95
2022-08-10T21:04:56.929Z,1.95
2022-08-10T21:08:00.393Z,2.00
2022-08-10T21:10:59.869Z,1.90
2022-08-10T21:13:51.572Z,1.80
2022-08-10T21:16:39.503Z,1.70
2022-08-10T21:19:39.986Z,2.15
2022-08-10T21:22:21.233Z,2.30
2022-08-10T21:25:04.098Z,1.90
2022-08-10T21:27:55.415Z,2.10
2022-08-10T21:30:34.790Z,1.92
2022-08-10T21:33:14.943Z,2.00
2022-08-10T21:35:52.646Z,1.90
2022-08-10T21:38:54.893Z,1.65
2022-08-10T21:42:04.263Z,2.00
2022-08-10T21:45:04.251Z,1.77
2022-08-10T21:48:30.102Z,2.00
2022-08-10T21:51:27.129Z,1.70
2022-08-10T21:54:42.974Z,1.83
2022-08-10T21:57:43.551Z,1.90
2022-08-10T22:00:49.445Z,1.80
2022-08-10T22:03:40.028Z,2.00
2022-08-10T22:06:28.130Z,1.80
2022-08-10T22:09:27.291Z,1.73
2022-08-10T22:12:31.186Z,1.98
2022-08-10T22:16:03.917Z,1.85
2022-08-10T22:18:58.776Z,1.75
2022-08-10T22:22:02.985Z,1.80
2022-08-10T22:25:18.049Z,1.80
2022-08-10T22:28:12.372Z,1.80
2022-08-10T22:31:30.125Z,2.17
2022-08-10T22:34:33.115Z,1.88
2022-08-10T22:38:09.380Z,2.03
2022-08-10T22:40:55.301Z,1.90
2022-08-10T22:43:48.472Z,2.15
2022-08-10T22:46:46.904Z,2.10
2022-08-10T22:49:21.088Z,2.15
2022-08-10T22:52:11.018Z,2.10
2022-08-10T22:55:12.285Z,2.08
2022-08-10T22:58:08.460Z,2.47
2022-08-10T23:00:37.062Z,1.80
2022-08-10T23:03:21.746Z,2.20
2022-08-10T23:06:06.152Z,1.90
2022-08-10T23:08:41.748Z,2.30
2022-08-10T23:11:22.970Z,2.35
2022-08-10T23:13:57.378Z,2.10
2022-08-10T23:16:47.516Z,2.25
2022-08-10T23:19:25.930Z,2.30
2022-08-10T23:22:02.954Z,2.10
2022-08-10T23:25:03.362Z,2.17
2022-08-10T23:27:38.326Z,2.40
2022-08-10T23:30:17.894Z,2.30
2022-08-10T23:32:50.955Z,2.00
2022-08-10T23:36:27.175Z,2.42
2022-08-10T23:38:10.652Z,2.70
2022-08-10T23:40:38.207Z,2.58
2022-08-10T23:43:06.794Z,2.47
2022-08-10T23:45:52.749Z,2.40
2022-08-10T23:48:29.613Z,2.33
2022-08-10T23:51:00.187Z,2.30
2022-08-10T23:53:38.509Z,2.78
2022-08-10T23:56:12.423Z,2.60
2022-08-10T23:58:45.919Z,2.77
